APL Denmark — A8JX9 — position and weather

sailwx.info

Track history (hours):
 
Tides and Currents Weather Stations Pressure Air Temp Water Temp Dewpoint Dewpoint Depression Visibility Wind Speed Wind Dir Waves Ship Positions

APL Denmark

Last reported at 2015-Apr-10 20:17 UTC. Time now 2015-May-26 01:43 UTC.
Position N 29°53' W 089°58'.
Warning: this ship's position is 45 days out of date.

Length 277 m; beam 40 m; draft 14 m.

Type: Cargo ship. MMSI: 636091157.

Date/timePositionNaut miles runAvg speedWind from/ knotsBaromVisibWave heightAir tempDewpointWater temp
2015-Apr-10 20:17N 29°53' W 089°58'6 5.5
2015-Apr-10 19:08N 29°58' W 090°03'5 8.0
2015-Apr-10 18:33N 29°55' W 090°07'0 0.4
2015-Apr-10 17:27N 29°55' W 090°07'0 0.0
2015-Apr-10 02:24N 29°55' W 090°07'3 3.1
2015-Apr-10 01:33N 29°56' W 090°04'7 6.4
2015-Apr-10 00:31N 29°55' W 089°56'4 4.1
2015-Apr-09 23:28N 29°52' W 089°59'7 7.5
2015-Apr-09 22:29N 29°44' W 090°00'245 8.4
2015-Apr-08 17:16N 29°20' W 094°41'912.2
2015-Apr-08 16:31N 29°25' W 094°50'1111.7
2015-Apr-08 15:33N 29°35' W 094°56'7 6.9
2015-Apr-08 14:33N 29°41' W 094°60'0 0.0
2015-Apr-08 13:33N 29°41' W 094°60'0 0.0
2015-Apr-08 12:31N 29°41' W 094°60'0 0.0
2015-Apr-08 11:31N 29°41' W 094°60'0 0.0
2015-Apr-08 10:31N 29°41' W 094°60'0 0.0
2015-Apr-08 09:31N 29°41' W 094°60'0 0.0
2015-Apr-08 08:31N 29°41' W 094°60'0 0.0
2015-Apr-08 07:31N 29°41' W 094°60'0 0.0
2015-Apr-08 06:31N 29°41' W 094°60'0 0.0
2015-Apr-08 05:28N 29°41' W 094°60'0 0.0
2015-Apr-08 04:29N 29°41' W 094°60'0 0.0
2015-Apr-08 03:31N 29°41' W 094°60'0 0.0
2015-Apr-08 02:31N 29°41' W 094°60'0 0.0
2015-Apr-08 01:31N 29°41' W 094°60'0 0.0
2015-Apr-08 00:32N 29°41' W 094°60'0 0.0
2015-Apr-07 23:31N 29°41' W 094°60'0 0.0
2015-Apr-07 22:31N 29°41' W 094°60'0 0.0
2015-Apr-07 21:31N 29°41' W 094°60'0 0.0
2015-Apr-07 20:31N 29°41' W 094°60'0 0.0
2015-Apr-07 19:25N 29°41' W 094°60'0 0.0
2015-Apr-07 18:25N 29°41' W 094°60'0 0.0
2015-Apr-07 17:32N 29°41' W 094°60'0 0.0
2015-Apr-07 16:31N 29°41' W 094°60'0 0.0
2015-Apr-07 15:31N 29°41' W 094°60'0 0.0
2015-Apr-07 14:28N 29°41' W 094°60'0 0.0
2015-Apr-07 13:25N 29°41' W 094°60'0 0.0
2015-Apr-07 12:25N 29°41' W 094°60'0 0.0
2015-Apr-07 11:28N 29°41' W 094°60'0 0.0
2015-Apr-07 10:28N 29°41' W 094°60'0 0.0
2015-Apr-07 09:28N 29°41' W 094°60'0 0.0
2015-Apr-07 08:31N 29°41' W 094°60'0 0.0
2015-Apr-07 07:31N 29°41' W 094°60'0 0.0
2015-Apr-07 06:31N 29°41' W 094°60'0 0.0
2015-Apr-07 05:33N 29°41' W 094°60'2 2.5
2015-Apr-07 04:33N 29°39' W 094°58'10 9.8
2015-Apr-07 03:33N 29°30' W 094°53'1211.8
2015-Apr-07 02:33N 29°21' W 094°45'  
Track history (hours):
 
Tides and Currents Weather Stations Pressure Air Temp Water Temp Dewpoint Dewpoint Depression Visibility Wind Speed Wind Dir Waves Ship Positions

APL Denmark

Last reported at 2015-Apr-10 20:17 UTC. Time now 2015-May-26 01:43 UTC.
Position N 29°53' W 089°58'.
Warning: this ship's position is 45 days out of date.

Length 277 m; beam 40 m; draft 14 m.

Type: Cargo ship. MMSI: 636091157.

Date/timePositionNaut miles runAvg speedWind from/ knotsBaromVisibWave heightAir tempDewpointWater temp
2015-Apr-10 20:17N 29°53' W 089°58'6 5.5
2015-Apr-10 19:08N 29°58' W 090°03'5 8.0
2015-Apr-10 18:33N 29°55' W 090°07'0 0.4
2015-Apr-10 17:27N 29°55' W 090°07'0 0.0
2015-Apr-10 02:24N 29°55' W 090°07'3 3.1
2015-Apr-10 01:33N 29°56' W 090°04'7 6.4
2015-Apr-10 00:31N 29°55' W 089°56'4 4.1
2015-Apr-09 23:28N 29°52' W 089°59'7 7.5
2015-Apr-09 22:29N 29°44' W 090°00'245 8.4
2015-Apr-08 17:16N 29°20' W 094°41'912.2
2015-Apr-08 16:31N 29°25' W 094°50'1111.7
2015-Apr-08 15:33N 29°35' W 094°56'7 6.9
2015-Apr-08 14:33N 29°41' W 094°60'0 0.0
2015-Apr-08 13:33N 29°41' W 094°60'0 0.0
2015-Apr-08 12:31N 29°41' W 094°60'0 0.0
2015-Apr-08 11:31N 29°41' W 094°60'0 0.0
2015-Apr-08 10:31N 29°41' W 094°60'0 0.0
2015-Apr-08 09:31N 29°41' W 094°60'0 0.0
2015-Apr-08 08:31N 29°41' W 094°60'0 0.0
2015-Apr-08 07:31N 29°41' W 094°60'0 0.0
2015-Apr-08 06:31N 29°41' W 094°60'0 0.0
2015-Apr-08 05:28N 29°41' W 094°60'0 0.0
2015-Apr-08 04:29N 29°41' W 094°60'0 0.0
2015-Apr-08 03:31N 29°41' W 094°60'0 0.0
2015-Apr-08 02:31N 29°41' W 094°60'0 0.0
2015-Apr-08 01:31N 29°41' W 094°60'0 0.0
2015-Apr-08 00:32N 29°41' W 094°60'0 0.0
2015-Apr-07 23:31N 29°41' W 094°60'0 0.0
2015-Apr-07 22:31N 29°41' W 094°60'0 0.0
2015-Apr-07 21:31N 29°41' W 094°60'0 0.0
2015-Apr-07 20:31N 29°41' W 094°60'0 0.0
2015-Apr-07 19:25N 29°41' W 094°60'0 0.0
2015-Apr-07 18:25N 29°41' W 094°60'0 0.0
2015-Apr-07 17:32N 29°41' W 094°60'0 0.0
2015-Apr-07 16:31N 29°41' W 094°60'0 0.0
2015-Apr-07 15:31N 29°41' W 094°60'0 0.0
2015-Apr-07 14:28N 29°41' W 094°60'0 0.0
2015-Apr-07 13:25N 29°41' W 094°60'0 0.0
2015-Apr-07 12:25N 29°41' W 094°60'0 0.0
2015-Apr-07 11:28N 29°41' W 094°60'0 0.0
2015-Apr-07 10:28N 29°41' W 094°60'0 0.0
2015-Apr-07 09:28N 29°41' W 094°60'0 0.0
2015-Apr-07 08:31N 29°41' W 094°60'0 0.0
2015-Apr-07 07:31N 29°41' W 094°60'0 0.0
2015-Apr-07 06:31N 29°41' W 094°60'0 0.0
2015-Apr-07 05:33N 29°41' W 094°60'2 2.5
2015-Apr-07 04:33N 29°39' W 094°58'10 9.8
2015-Apr-07 03:33N 29°30' W 094°53'1211.8
2015-Apr-07 02:33N 29°21' W 094°45'  

Dump ship's entire track history